sensor_id;sensor_type;location;lat;lon;timestamp;temperature;humidity
7077;DHT22;3579;48.956;9.154;2023-05-19T00:01:46;21.40;48.60
7077;DHT22;3579;48.956;9.154;2023-05-19T00:04:13;21.40;48.60
7077;DHT22;3579;48.956;9.154;2023-05-19T00:06:40;21.40;48.60
7077;DHT22;3579;48.956;9.154;2023-05-19T00:09:08;21.40;48.60
7077;DHT22;3579;48.956;9.154;2023-05-19T00:11:36;21.30;48.60
7077;DHT22;3579;48.956;9.154;2023-05-19T00:14:08;21.30;48.60
7077;DHT22;3579;48.956;9.154;2023-05-19T00:16:35;21.30;48.60
7077;DHT22;3579;48.956;9.154;2023-05-19T00:19:02;21.30;48.70
7077;DHT22;3579;48.956;9.154;2023-05-19T00:21:28;21.30;48.70
7077;DHT22;3579;48.956;9.154;2023-05-19T00:23:56;21.20;48.70
7077;DHT22;3579;48.956;9.154;2023-05-19T00:26:23;21.20;48.70
7077;DHT22;3579;48.956;9.154;2023-05-19T00:28:49;21.20;48.70
7077;DHT22;3579;48.956;9.154;2023-05-19T00:31:16;21.20;48.70
7077;DHT22;3579;48.956;9.154;2023-05-19T00:33:42;21.20;48.80
7077;DHT22;3579;48.956;9.154;2023-05-19T00:36:08;21.20;48.80
7077;DHT22;3579;48.956;9.154;2023-05-19T00:38:35;21.20;48.90
7077;DHT22;3579;48.956;9.154;2023-05-19T00:41:02;21.10;48.80
7077;DHT22;3579;48.956;9.154;2023-05-19T00:43:29;21.10;48.80
7077;DHT22;3579;48.956;9.154;2023-05-19T00:45:55;21.10;48.90
7077;DHT22;3579;48.956;9.154;2023-05-19T00:48:23;21.10;49.50
7077;DHT22;3579;48.956;9.154;2023-05-19T00:50:50;21.10;48.90
7077;DHT22;3579;48.956;9.154;2023-05-19T00:53:17;21.00;48.90
7077;DHT22;3579;48.956;9.154;2023-05-19T00:55:44;21.00;48.90
7077;DHT22;3579;48.956;9.154;2023-05-19T00:58:11;21.00;48.90
7077;DHT22;3579;48.956;9.154;2023-05-19T01:00:38;21.00;48.90
7077;DHT22;3579;48.956;9.154;2023-05-19T01:03:05;21.00;49.00
7077;DHT22;3579;48.956;9.154;2023-05-19T01:05:41;21.00;49.00
7077;DHT22;3579;48.956;9.154;2023-05-19T01:08:09;20.90;49.00
7077;DHT22;3579;48.956;9.154;2023-05-19T01:10:35;20.90;49.00
7077;DHT22;3579;48.956;9.154;2023-05-19T01:13:05;20.90;49.00
7077;DHT22;3579;48.956;9.154;2023-05-19T01:33:01;20.80;49.20
7077;DHT22;3579;48.956;9.154;2023-05-19T01:35:28;20.80;49.20
7077;DHT22;3579;48.956;9.154;2023-05-19T01:37:57;20.80;49.30
7077;DHT22;3579;48.956;9.154;2023-05-19T01:40:25;20.80;49.30
7077;DHT22;3579;48.956;9.154;2023-05-19T01:42:55;20.80;49.30
7077;DHT22;3579;48.956;9.154;2023-05-19T01:45:22;20.70;49.20
7077;DHT22;3579;48.956;9.154;2023-05-19T01:47:52;20.70;49.20
7077;DHT22;3579;48.956;9.154;2023-05-19T01:50:19;20.70;49.20
7077;DHT22;3579;48.956;9.154;2023-05-19T01:52:46;20.70;49.30
7077;DHT22;3579;48.956;9.154;2023-05-19T01:55:12;20.70;49.30
7077;DHT22;3579;48.956;9.154;2023-05-19T02:06:22;20.60;49.30
7077;DHT22;3579;48.956;9.154;2023-05-19T02:09:29;20.60;49.40
7077;DHT22;3579;48.956;9.154;2023-05-19T02:12:10;20.60;49.40
7077;DHT22;3579;48.956;9.154;2023-05-19T02:15:01;20.60;49.40
7077;DHT22;3579;48.956;9.154;2023-05-19T02:17:29;20.50;49.40
7077;DHT22;3579;48.956;9.154;2023-05-19T02:20:02;20.50;49.40
7077;DHT22;3579;48.956;9.154;2023-05-19T02:22:29;20.50;49.40
7077;DHT22;3579;48.956;9.154;2023-05-19T02:24:55;20.50;49.40
7077;DHT22;3579;48.956;9.154;2023-05-19T02:27:22;20.50;50.00
7077;DHT22;3579;48.956;9.154;2023-05-19T02:29:48;20.50;49.40
7077;DHT22;3579;48.956;9.154;2023-05-19T02:32:16;20.50;49.40
7077;DHT22;3579;48.956;9.154;2023-05-19T02:34:42;20.50;49.50
7077;DHT22;3579;48.956;9.154;2023-05-19T02:37:14;20.50;49.50
7077;DHT22;3579;48.956;9.154;2023-05-19T02:39:41;20.40;49.40
7077;DHT22;3579;48.956;9.154;2023-05-19T02:42:07;20.40;49.50
7077;DHT22;3579;48.956;9.154;2023-05-19T02:44:33;20.40;49.50
7077;DHT22;3579;48.956;9.154;2023-05-19T02:46:59;20.40;49.50
7077;DHT22;3579;48.956;9.154;2023-05-19T02:49:26;20.40;49.50
7077;DHT22;3579;48.956;9.154;2023-05-19T02:51:52;20.40;49.50
7077;DHT22;3579;48.956;9.154;2023-05-19T02:54:18;20.40;49.60
7077;DHT22;3579;48.956;9.154;2023-05-19T02:56:44;20.40;49.60
7077;DHT22;3579;48.956;9.154;2023-05-19T02:59:10;20.40;49.60
7077;DHT22;3579;48.956;9.154;2023-05-19T03:01:36;20.30;49.60
7077;DHT22;3579;48.956;9.154;2023-05-19T03:04:03;20.30;49.60
7077;DHT22;3579;48.956;9.154;2023-05-19T03:06:29;20.30;49.60
7077;DHT22;3579;48.956;9.154;2023-05-19T03:08:57;20.30;49.60
7077;DHT22;3579;48.956;9.154;2023-05-19T03:11:23;20.30;49.60
7077;DHT22;3579;48.956;9.154;2023-05-19T03:13:49;20.30;49.60
7077;DHT22;3579;48.956;9.154;2023-05-19T03:16:15;20.30;49.60
7077;DHT22;3579;48.956;9.154;2023-05-19T03:18:42;20.20;49.60
7077;DHT22;3579;48.956;9.154;2023-05-19T03:21:08;20.20;49.70
7077;DHT22;3579;48.956;9.154;2023-05-19T03:23:34;20.20;49.70
7077;DHT22;3579;48.956;9.154;2023-05-19T03:26:00;20.20;49.70
7077;DHT22;3579;48.956;9.154;2023-05-19T03:28:25;20.20;49.70
7077;DHT22;3579;48.956;9.154;2023-05-19T03:30:52;20.20;49.70
7077;DHT22;3579;48.956;9.154;2023-05-19T03:33:18;20.20;49.70
7077;DHT22;3579;48.956;9.154;2023-05-19T03:35:44;20.20;49.70
7077;DHT22;3579;48.956;9.154;2023-05-19T03:38:10;20.20;49.70
7077;DHT22;3579;48.956;9.154;2023-05-19T03:40:36;20.10;49.70
7077;DHT22;3579;48.956;9.154;2023-05-19T03:43:02;20.20;49.80
7077;DHT22;3579;48.956;9.154;2023-05-19T03:45:28;20.10;49.70
7077;DHT22;3579;48.956;9.154;2023-05-19T03:47:57;20.10;49.70
7077;DHT22;3579;48.956;9.154;2023-05-19T03:50:23;20.10;49.70
7077;DHT22;3579;48.956;9.154;2023-05-19T03:52:49;20.10;49.80
7077;DHT22;3579;48.956;9.154;2023-05-19T03:55:15;20.10;49.80
7077;DHT22;3579;48.956;9.154;2023-05-19T03:57:41;20.10;49.80
7077;DHT22;3579;48.956;9.154;2023-05-19T04:00:09;20.10;49.80
7077;DHT22;3579;48.956;9.154;2023-05-19T04:02:37;20.00;49.70
7077;DHT22;3579;48.956;9.154;2023-05-19T04:05:03;20.00;49.80
7077;DHT22;3579;48.956;9.154;2023-05-19T04:07:32;20.00;49.70
7077;DHT22;3579;48.956;9.154;2023-05-19T04:09:58;20.00;49.70
7077;DHT22;3579;48.956;9.154;2023-05-19T04:12:24;20.00;49.80
7077;DHT22;3579;48.956;9.154;2023-05-19T04:14:50;20.00;49.70
7077;DHT22;3579;48.956;9.154;2023-05-19T04:17:16;20.00;49.70
7077;DHT22;3579;48.956;9.154;2023-05-19T04:19:42;20.00;49.70
7077;DHT22;3579;48.956;9.154;2023-05-19T04:22:08;20.00;49.70
7077;DHT22;3579;48.956;9.154;2023-05-19T04:24:34;20.00;49.70
7077;DHT22;3579;48.956;9.154;2023-05-19T04:27:01;20.10;49.80
7077;DHT22;3579;48.956;9.154;2023-05-19T04:29:28;20.00;49.70
7077;DHT22;3579;48.956;9.154;2023-05-19T04:31:55;20.00;49.70
7077;DHT22;3579;48.956;9.154;2023-05-19T04:34:22;20.00;49.70
7077;DHT22;3579;48.956;9.154;2023-05-19T04:36:48;20.00;49.70
7077;DHT22;3579;48.956;9.154;2023-05-19T04:39:14;20.00;49.70
7077;DHT22;3579;48.956;9.154;2023-05-19T04:41:40;20.10;49.80
7077;DHT22;3579;48.956;9.154;2023-05-19T04:44:09;20.00;49.70
7077;DHT22;3579;48.956;9.154;2023-05-19T04:46:35;20.10;49.70
7077;DHT22;3579;48.956;9.154;2023-05-19T04:49:01;20.10;49.70
7077;DHT22;3579;48.956;9.154;2023-05-19T04:51:27;20.10;49.70
7077;DHT22;3579;48.956;9.154;2023-05-19T04:53:58;20.10;49.60
7077;DHT22;3579;48.956;9.154;2023-05-19T04:56:24;20.10;49.60
7077;DHT22;3579;48.956;9.154;2023-05-19T04:58:52;20.20;49.60
7077;DHT22;3579;48.956;9.154;2023-05-19T05:01:18;20.20;49.50
7077;DHT22;3579;48.956;9.154;2023-05-19T05:03:46;20.20;49.40
7077;DHT22;3579;48.956;9.154;2023-05-19T05:06:12;20.30;49.40
7077;DHT22;3579;48.956;9.154;2023-05-19T05:08:38;20.40;49.30
7077;DHT22;3579;48.956;9.154;2023-05-19T05:11:06;20.50;49.10
7077;DHT22;3579;48.956;9.154;2023-05-19T05:13:32;20.60;49.00
7077;DHT22;3579;48.956;9.154;2023-05-19T05:15:58;20.60;48.90
7077;DHT22;3579;48.956;9.154;2023-05-19T05:18:25;20.70;48.80
7077;DHT22;3579;48.956;9.154;2023-05-19T05:20:51;20.70;48.60
7077;DHT22;3579;48.956;9.154;2023-05-19T05:23:18;20.80;48.70
7077;DHT22;3579;48.956;9.154;2023-05-19T05:25:45;20.90;48.50
7077;DHT22;3579;48.956;9.154;2023-05-19T05:28:11;21.00;48.40
7077;DHT22;3579;48.956;9.154;2023-05-19T05:30:37;21.20;48.20
7077;DHT22;3579;48.956;9.154;2023-05-19T05:33:04;21.30;48.00
7077;DHT22;3579;48.956;9.154;2023-05-19T05:35:30;21.40;47.90
7077;DHT22;3579;48.956;9.154;2023-05-19T05:37:56;21.50;47.80
7077;DHT22;3579;48.956;9.154;2023-05-19T05:40:22;21.60;47.80
7077;DHT22;3579;48.956;9.154;2023-05-19T05:42:48;21.60;47.60
7077;DHT22;3579;48.956;9.154;2023-05-19T05:45:15;21.70;47.50
7077;DHT22;3579;48.956;9.154;2023-05-19T05:47:41;21.80;47.40
7077;DHT22;3579;48.956;9.154;2023-05-19T05:50:08;21.90;47.30
7077;DHT22;3579;48.956;9.154;2023-05-19T05:52:35;22.00;47.20
7077;DHT22;3579;48.956;9.154;2023-05-19T05:55:03;22.00;47.10
7077;DHT22;3579;48.956;9.154;2023-05-19T05:57:29;22.20;47.00
7077;DHT22;3579;48.956;9.154;2023-05-19T05:59:56;22.50;46.70
7077;DHT22;3579;48.956;9.154;2023-05-19T06:02:22;22.80;46.30
7077;DHT22;3579;48.956;9.154;2023-05-19T06:04:48;23.00;45.90
7077;DHT22;3579;48.956;9.154;2023-05-19T06:07:14;23.20;45.60
7077;DHT22;3579;48.956;9.154;2023-05-19T06:09:40;23.40;45.20
7077;DHT22;3579;48.956;9.154;2023-05-19T06:12:07;23.60;45.00
7077;DHT22;3579;48.956;9.154;2023-05-19T06:14:33;23.80;44.80
7077;DHT22;3579;48.956;9.154;2023-05-19T06:16:59;24.00;45.10
7077;DHT22;3579;48.956;9.154;2023-05-19T06:19:25;24.00;44.30
7077;DHT22;3579;48.956;9.154;2023-05-19T06:21:51;24.00;44.40
7077;DHT22;3579;48.956;9.154;2023-05-19T06:24:17;24.30;44.80
7077;DHT22;3579;48.956;9.154;2023-05-19T06:26:43;24.50;44.10
7077;DHT22;3579;48.956;9.154;2023-05-19T06:29:09;24.60;43.90
7077;DHT22;3579;48.956;9.154;2023-05-19T06:31:35;24.80;43.90
7077;DHT22;3579;48.956;9.154;2023-05-19T06:34:01;24.60;43.90
7077;DHT22;3579;48.956;9.154;2023-05-19T06:36:27;24.30;44.40
7077;DHT22;3579;48.956;9.154;2023-05-19T06:38:53;24.10;44.60
7077;DHT22;3579;48.956;9.154;2023-05-19T06:41:19;24.10;44.80
7077;DHT22;3579;48.956;9.154;2023-05-19T06:43:46;24.30;44.70
7077;DHT22;3579;48.956;9.154;2023-05-19T06:46:12;25.20;44.00
7077;DHT22;3579;48.956;9.154;2023-05-19T06:48:38;26.10;42.70
7077;DHT22;3579;48.956;9.154;2023-05-19T06:51:04;26.80;41.50
7077;DHT22;3579;48.956;9.154;2023-05-19T06:53:30;27.90;39.90
7077;DHT22;3579;48.956;9.154;2023-05-19T06:55:56;28.30;39.20
7077;DHT22;3579;48.956;9.154;2023-05-19T06:58:22;28.90;38.30
7077;DHT22;3579;48.956;9.154;2023-05-19T07:00:48;28.40;38.30
7077;DHT22;3579;48.956;9.154;2023-05-19T07:03:14;27.00;40.00
7077;DHT22;3579;48.956;9.154;2023-05-19T07:05:40;26.10;41.60
7077;DHT22;3579;48.956;9.154;2023-05-19T07:08:06;25.60;42.60
7077;DHT22;3579;48.956;9.154;2023-05-19T07:10:33;25.30;43.30
7077;DHT22;3579;48.956;9.154;2023-05-19T07:12:59;25.10;43.80
7077;DHT22;3579;48.956;9.154;2023-05-19T07:15:25;25.10;44.00
7077;DHT22;3579;48.956;9.154;2023-05-19T07:17:51;25.20;43.90
7077;DHT22;3579;48.956;9.154;2023-05-19T07:20:17;25.30;43.90
7077;DHT22;3579;48.956;9.154;2023-05-19T07:22:43;25.30;43.90
7077;DHT22;3579;48.956;9.154;2023-05-19T07:25:09;25.70;43.50
7077;DHT22;3579;48.956;9.154;2023-05-19T07:27:35;25.70;43.50
7077;DHT22;3579;48.956;9.154;2023-05-19T07:30:02;25.80;43.40
7077;DHT22;3579;48.956;9.154;2023-05-19T07:32:28;25.90;43.30
7077;DHT22;3579;48.956;9.154;2023-05-19T07:34:54;25.90;43.50
7077;DHT22;3579;48.956;9.154;2023-05-19T07:37:20;25.80;43.50
7077;DHT22;3579;48.956;9.154;2023-05-19T07:39:46;25.70;43.80
7077;DHT22;3579;48.956;9.154;2023-05-19T07:42:12;25.50;44.00
7077;DHT22;3579;48.956;9.154;2023-05-19T07:44:38;25.40;44.20
7077;DHT22;3579;48.956;9.154;2023-05-19T07:47:06;25.20;44.80
7077;DHT22;3579;48.956;9.154;2023-05-19T07:49:32;25.10;44.60
7077;DHT22;3579;48.956;9.154;2023-05-19T07:51:58;25.00;44.70
7077;DHT22;3579;48.956;9.154;2023-05-19T07:54:24;24.90;45.00
7077;DHT22;3579;48.956;9.154;2023-05-19T07:56:50;24.80;45.10
7077;DHT22;3579;48.956;9.154;2023-05-19T07:59:16;24.70;45.20
7077;DHT22;3579;48.956;9.154;2023-05-19T08:01:42;24.70;45.30
7077;DHT22;3579;48.956;9.154;2023-05-19T08:04:09;24.70;45.50
7077;DHT22;3579;48.956;9.154;2023-05-19T08:06:36;24.60;45.40
7077;DHT22;3579;48.956;9.154;2023-05-19T08:09:02;24.60;45.50
7077;DHT22;3579;48.956;9.154;2023-05-19T08:11:28;24.50;45.50
7077;DHT22;3579;48.956;9.154;2023-05-19T08:13:54;24.50;45.50
7077;DHT22;3579;48.956;9.154;2023-05-19T08:16:20;24.50;45.60
7077;DHT22;3579;48.956;9.154;2023-05-19T08:18:46;24.50;45.60
7077;DHT22;3579;48.956;9.154;2023-05-19T08:21:12;24.50;45.70
7077;DHT22;3579;48.956;9.154;2023-05-19T08:23:38;24.50;45.70
7077;DHT22;3579;48.956;9.154;2023-05-19T08:26:04;24.50;45.80
7077;DHT22;3579;48.956;9.154;2023-05-19T08:28:30;24.40;45.80
7077;DHT22;3579;48.956;9.154;2023-05-19T08:30:56;24.40;45.80
7077;DHT22;3579;48.956;9.154;2023-05-19T08:33:22;24.40;45.90
7077;DHT22;3579;48.956;9.154;2023-05-19T08:35:48;24.40;45.90
7077;DHT22;3579;48.956;9.154;2023-05-19T08:38:14;24.40;45.90
7077;DHT22;3579;48.956;9.154;2023-05-19T08:40:41;24.40;46.10
7077;DHT22;3579;48.956;9.154;2023-05-19T08:43:07;24.30;46.10
7077;DHT22;3579;48.956;9.154;2023-05-19T08:45:33;24.30;46.20
7077;DHT22;3579;48.956;9.154;2023-05-19T08:47:59;24.30;46.20
7077;DHT22;3579;48.956;9.154;2023-05-19T08:50:29;24.20;46.30
7077;DHT22;3579;48.956;9.154;2023-05-19T08:53:07;24.20;46.20
7077;DHT22;3579;48.956;9.154;2023-05-19T08:58:39;24.10;46.30
7077;DHT22;3579;48.956;9.154;2023-05-19T09:01:13;24.10;46.30
7077;DHT22;3579;48.956;9.154;2023-05-19T09:03:43;24.10;46.40
7077;DHT22;3579;48.956;9.154;2023-05-19T09:06:10;24.10;46.40
7077;DHT22;3579;48.956;9.154;2023-05-19T09:08:40;24.20;46.50
7077;DHT22;3579;48.956;9.154;2023-05-19T09:11:08;24.20;46.40
7077;DHT22;3579;48.956;9.154;2023-05-19T09:13:35;24.10;46.30
7077;DHT22;3579;48.956;9.154;2023-05-19T09:16:01;24.20;46.40
7077;DHT22;3579;48.956;9.154;2023-05-19T09:18:28;24.10;46.40
7077;DHT22;3579;48.956;9.154;2023-05-19T09:21:05;24.10;46.40
7077;DHT22;3579;48.956;9.154;2023-05-19T09:23:32;24.10;46.40
7077;DHT22;3579;48.956;9.154;2023-05-19T09:26:03;24.20;46.40
7077;DHT22;3579;48.956;9.154;2023-05-19T09:28:34;24.20;46.40
7077;DHT22;3579;48.956;9.154;2023-05-19T09:31:02;24.20;46.40
7077;DHT22;3579;48.956;9.154;2023-05-19T09:33:29;24.20;46.30
7077;DHT22;3579;48.956;9.154;2023-05-19T09:35:56;24.20;46.30
7077;DHT22;3579;48.956;9.154;2023-05-19T09:38:26;24.20;46.30
7077;DHT22;3579;48.956;9.154;2023-05-19T09:40:55;24.20;46.30
7077;DHT22;3579;48.956;9.154;2023-05-19T09:43:28;24.20;46.30
7077;DHT22;3579;48.956;9.154;2023-05-19T09:46:08;24.20;46.30
7077;DHT22;3579;48.956;9.154;2023-05-19T09:48:36;24.30;46.30
7077;DHT22;3579;48.956;9.154;2023-05-19T09:51:07;24.20;46.30
7077;DHT22;3579;48.956;9.154;2023-05-19T09:53:35;24.20;46.30
7077;DHT22;3579;48.956;9.154;2023-05-19T09:56:01;24.20;46.40
7077;DHT22;3579;48.956;9.154;2023-05-19T09:58:34;24.20;46.40
7077;DHT22;3579;48.956;9.154;2023-05-19T10:01:01;24.20;46.40
7077;DHT22;3579;48.956;9.154;2023-05-19T10:03:28;24.20;46.40
7077;DHT22;3579;48.956;9.154;2023-05-19T10:06:02;24.20;46.40
7077;DHT22;3579;48.956;9.154;2023-05-19T10:08:29;24.20;46.40
7077;DHT22;3579;48.956;9.154;2023-05-19T10:10:56;24.20;46.40
7077;DHT22;3579;48.956;9.154;2023-05-19T10:13:23;24.20;46.30
7077;DHT22;3579;48.956;9.154;2023-05-19T10:15:51;24.20;46.30
7077;DHT22;3579;48.956;9.154;2023-05-19T10:18:19;24.30;46.40
7077;DHT22;3579;48.956;9.154;2023-05-19T10:20:46;24.30;46.50
7077;DHT22;3579;48.956;9.154;2023-05-19T10:23:13;24.30;46.40
7077;DHT22;3579;48.956;9.154;2023-05-19T10:25:40;24.30;46.30
7077;DHT22;3579;48.956;9.154;2023-05-19T10:28:10;24.40;46.30
7077;DHT22;3579;48.956;9.154;2023-05-19T10:30:40;24.40;46.30
7077;DHT22;3579;48.956;9.154;2023-05-19T10:33:09;24.40;46.30
7077;DHT22;3579;48.956;9.154;2023-05-19T10:38:40;24.40;46.30
7077;DHT22;3579;48.956;9.154;2023-05-19T10:41:09;24.40;46.40
7077;DHT22;3579;48.956;9.154;2023-05-19T10:46:39;24.40;46.30
7077;DHT22;3579;48.956;9.154;2023-05-19T10:49:08;24.30;46.30
7077;DHT22;3579;48.956;9.154;2023-05-19T10:51:34;24.30;46.40
7077;DHT22;3579;48.956;9.154;2023-05-19T10:54:02;24.30;46.40
7077;DHT22;3579;48.956;9.154;2023-05-19T10:56:33;24.20;46.30
7077;DHT22;3579;48.956;9.154;2023-05-19T10:59:02;24.20;46.40
7077;DHT22;3579;48.956;9.154;2023-05-19T11:01:35;24.20;46.40
7077;DHT22;3579;48.956;9.154;2023-05-19T11:04:06;24.20;46.40
7077;DHT22;3579;48.956;9.154;2023-05-19T11:06:35;24.20;46.40
7077;DHT22;3579;48.956;9.154;2023-05-19T11:09:16;24.30;46.50
7077;DHT22;3579;48.956;9.154;2023-05-19T11:11:49;24.30;46.40
7077;DHT22;3579;48.956;9.154;2023-05-19T11:14:24;24.30;46.30
7077;DHT22;3579;48.956;9.154;2023-05-19T11:16:52;24.30;46.30
7077;DHT22;3579;48.956;9.154;2023-05-19T11:19:28;24.30;46.40
7077;DHT22;3579;48.956;9.154;2023-05-19T11:21:55;24.30;46.30
7077;DHT22;3579;48.956;9.154;2023-05-19T11:24:47;24.30;46.30
7077;DHT22;3579;48.956;9.154;2023-05-19T11:30:13;24.40;46.30
7077;DHT22;3579;48.956;9.154;2023-05-19T11:32:46;24.40;46.30
7077;DHT22;3579;48.956;9.154;2023-05-19T11:35:13;24.30;46.30
7077;DHT22;3579;48.956;9.154;2023-05-19T11:37:41;24.30;46.30
7077;DHT22;3579;48.956;9.154;2023-05-19T11:40:07;24.30;46.40
7077;DHT22;3579;48.956;9.154;2023-05-19T11:42:35;24.30;46.40
7077;DHT22;3579;48.956;9.154;2023-05-19T11:45:02;24.30;46.40
7077;DHT22;3579;48.956;9.154;2023-05-19T11:47:30;24.30;46.40
7077;DHT22;3579;48.956;9.154;2023-05-19T11:50:00;24.30;46.40
7077;DHT22;3579;48.956;9.154;2023-05-19T11:52:26;24.30;46.40
7077;DHT22;3579;48.956;9.154;2023-05-19T11:54:52;25.50;47.30
7077;DHT22;3579;48.956;9.154;2023-05-19T11:57:19;24.30;46.40
7077;DHT22;3579;48.956;9.154;2023-05-19T11:59:45;24.40;46.50
7077;DHT22;3579;48.956;9.154;2023-05-19T12:02:22;24.40;46.40
7077;DHT22;3579;48.956;9.154;2023-05-19T12:04:53;24.40;46.40
7077;DHT22;3579;48.956;9.154;2023-05-19T12:07:22;24.40;46.40
7077;DHT22;3579;48.956;9.154;2023-05-19T12:09:50;24.40;46.30
7077;DHT22;3579;48.956;9.154;2023-05-19T12:12:18;24.40;46.30
7077;DHT22;3579;48.956;9.154;2023-05-19T12:14:45;24.40;46.40
7077;DHT22;3579;48.956;9.154;2023-05-19T12:17:14;24.30;46.30
7077;DHT22;3579;48.956;9.154;2023-05-19T12:19:47;24.30;46.40
7077;DHT22;3579;48.956;9.154;2023-05-19T12:22:14;24.30;46.40
7077;DHT22;3579;48.956;9.154;2023-05-19T12:24:42;24.30;46.40
7077;DHT22;3579;48.956;9.154;2023-05-19T12:27:18;25.20;47.20
7077;DHT22;3579;48.956;9.154;2023-05-19T12:29:53;24.30;46.50
7077;DHT22;3579;48.956;9.154;2023-05-19T12:32:24;24.30;46.50
7077;DHT22;3579;48.956;9.154;2023-05-19T12:34:51;24.20;46.50
7077;DHT22;3579;48.956;9.154;2023-05-19T12:37:18;24.20;46.50
7077;DHT22;3579;48.956;9.154;2023-05-19T12:39:44;24.20;46.50
7077;DHT22;3579;48.956;9.154;2023-05-19T12:42:11;24.20;46.40
7077;DHT22;3579;48.956;9.154;2023-05-19T12:44:49;24.30;46.50
7077;DHT22;3579;48.956;9.154;2023-05-19T12:47:18;24.30;46.50
7077;DHT22;3579;48.956;9.154;2023-05-19T12:52:27;24.30;46.50
7077;DHT22;3579;48.956;9.154;2023-05-19T12:55:02;24.30;46.50
7077;DHT22;3579;48.956;9.154;2023-05-19T12:57:35;22.20;44.80
7077;DHT22;3579;48.956;9.154;2023-05-19T13:00:12;24.30;46.50
7077;DHT22;3579;48.956;9.154;2023-05-19T13:03:00;24.20;47.00
7077;DHT22;3579;48.956;9.154;2023-05-19T13:05:28;24.20;46.50
7077;DHT22;3579;48.956;9.154;2023-05-19T13:10:28;24.20;46.60
7077;DHT22;3579;48.956;9.154;2023-05-19T13:12:54;24.20;46.70
7077;DHT22;3579;48.956;9.154;2023-05-19T13:15:22;24.20;47.20
7077;DHT22;3579;48.956;9.154;2023-05-19T13:17:49;24.10;46.60
7077;DHT22;3579;48.956;9.154;2023-05-19T13:20:15;24.10;46.60
7077;DHT22;3579;48.956;9.154;2023-05-19T13:22:41;24.10;46.60
7077;DHT22;3579;48.956;9.154;2023-05-19T13:25:08;24.10;46.70
7077;DHT22;3579;48.956;9.154;2023-05-19T13:27:34;24.10;46.70
7077;DHT22;3579;48.956;9.154;2023-05-19T13:30:00;24.10;46.70
7077;DHT22;3579;48.956;9.154;2023-05-19T13:32:26;24.10;46.60
7077;DHT22;3579;48.956;9.154;2023-05-19T13:34:52;24.10;46.60
7077;DHT22;3579;48.956;9.154;2023-05-19T13:37:18;24.10;46.60
7077;DHT22;3579;48.956;9.154;2023-05-19T13:39:45;24.10;46.60
7077;DHT22;3579;48.956;9.154;2023-05-19T13:42:11;24.10;46.60
7077;DHT22;3579;48.956;9.154;2023-05-19T13:44:36;24.10;46.60
7077;DHT22;3579;48.956;9.154;2023-05-19T13:47:03;24.10;46.60
7077;DHT22;3579;48.956;9.154;2023-05-19T13:49:29;24.10;46.70
7077;DHT22;3579;48.956;9.154;2023-05-19T13:51:56;24.10;46.70
7077;DHT22;3579;48.956;9.154;2023-05-19T13:54:25;24.10;46.70
7077;DHT22;3579;48.956;9.154;2023-05-19T13:56:52;24.10;46.60
7077;DHT22;3579;48.956;9.154;2023-05-19T13:59:18;24.10;46.60
7077;DHT22;3579;48.956;9.154;2023-05-19T14:01:46;24.20;46.60
7077;DHT22;3579;48.956;9.154;2023-05-19T14:04:14;24.10;46.50
7077;DHT22;3579;48.956;9.154;2023-05-19T14:06:40;24.20;46.60
7077;DHT22;3579;48.956;9.154;2023-05-19T14:09:07;24.20;46.50
7077;DHT22;3579;48.956;9.154;2023-05-19T14:11:33;24.20;46.50
7077;DHT22;3579;48.956;9.154;2023-05-19T14:13:59;24.20;46.50
7077;DHT22;3579;48.956;9.154;2023-05-19T14:16:28;24.20;46.50
7077;DHT22;3579;48.956;9.154;2023-05-19T14:18:55;24.20;46.60
7077;DHT22;3579;48.956;9.154;2023-05-19T14:21:21;24.10;46.50
7077;DHT22;3579;48.956;9.154;2023-05-19T14:23:47;24.10;46.50
7077;DHT22;3579;48.956;9.154;2023-05-19T14:26:13;24.20;46.60
7077;DHT22;3579;48.956;9.154;2023-05-19T14:28:39;24.10;46.60
7077;DHT22;3579;48.956;9.154;2023-05-19T14:31:10;24.10;46.60
7077;DHT22;3579;48.956;9.154;2023-05-19T14:33:36;24.10;46.60
7077;DHT22;3579;48.956;9.154;2023-05-19T14:36:02;24.10;46.60
7077;DHT22;3579;48.956;9.154;2023-05-19T14:38:30;24.10;46.60
7077;DHT22;3579;48.956;9.154;2023-05-19T14:40:56;24.10;46.60
7077;DHT22;3579;48.956;9.154;2023-05-19T14:43:22;24.10;46.50
7077;DHT22;3579;48.956;9.154;2023-05-19T14:45:48;24.10;46.50
7077;DHT22;3579;48.956;9.154;2023-05-19T14:48:15;24.70;47.00
7077;DHT22;3579;48.956;9.154;2023-05-19T14:50:41;24.20;46.50
7077;DHT22;3579;48.956;9.154;2023-05-19T14:53:07;24.20;46.50
7077;DHT22;3579;48.956;9.154;2023-05-19T14:55:33;24.20;46.50
7077;DHT22;3579;48.956;9.154;2023-05-19T14:57:59;24.20;46.40
7077;DHT22;3579;48.956;9.154;2023-05-19T15:00:25;24.20;46.40
7077;DHT22;3579;48.956;9.154;2023-05-19T15:02:52;24.30;46.40
7077;DHT22;3579;48.956;9.154;2023-05-19T15:05:18;24.30;46.30
7077;DHT22;3579;48.956;9.154;2023-05-19T15:07:44;24.30;46.30
7077;DHT22;3579;48.956;9.154;2023-05-19T15:10:11;24.30;46.30
7077;DHT22;3579;48.956;9.154;2023-05-19T15:12:37;24.30;46.30
7077;DHT22;3579;48.956;9.154;2023-05-19T15:15:03;24.30;46.30
7077;DHT22;3579;48.956;9.154;2023-05-19T15:17:29;24.40;46.30
7077;DHT22;3579;48.956;9.154;2023-05-19T15:19:55;24.40;46.30
7077;DHT22;3579;48.956;9.154;2023-05-19T15:22:21;24.40;46.30
7077;DHT22;3579;48.956;9.154;2023-05-19T15:24:47;24.40;46.30
7077;DHT22;3579;48.956;9.154;2023-05-19T15:27:13;24.40;46.20
7077;DHT22;3579;48.956;9.154;2023-05-19T15:29:49;24.40;46.30
7077;DHT22;3579;48.956;9.154;2023-05-19T15:32:15;24.40;46.30
7077;DHT22;3579;48.956;9.154;2023-05-19T15:34:41;24.40;46.30
7077;DHT22;3579;48.956;9.154;2023-05-19T15:37:07;24.40;46.30
7077;DHT22;3579;48.956;9.154;2023-05-19T15:39:33;24.40;46.30
7077;DHT22;3579;48.956;9.154;2023-05-19T15:41:59;24.40;46.30
7077;DHT22;3579;48.956;9.154;2023-05-19T15:44:25;24.40;46.30
7077;DHT22;3579;48.956;9.154;2023-05-19T15:46:52;24.40;46.30
7077;DHT22;3579;48.956;9.154;2023-05-19T15:49:18;24.40;46.30
7077;DHT22;3579;48.956;9.154;2023-05-19T15:51:44;24.40;46.30
7077;DHT22;3579;48.956;9.154;2023-05-19T15:54:10;24.40;46.40
7077;DHT22;3579;48.956;9.154;2023-05-19T15:56:36;24.40;46.40
7077;DHT22;3579;48.956;9.154;2023-05-19T15:59:02;24.40;46.40
7077;DHT22;3579;48.956;9.154;2023-05-19T16:01:28;24.30;46.30
7077;DHT22;3579;48.956;9.154;2023-05-19T16:03:55;24.40;46.30
7077;DHT22;3579;48.956;9.154;2023-05-19T16:06:21;24.40;46.30
7077;DHT22;3579;48.956;9.154;2023-05-19T16:08:47;24.40;46.30
7077;DHT22;3579;48.956;9.154;2023-05-19T16:11:13;22.80;44.90
7077;DHT22;3579;48.956;9.154;2023-05-19T16:13:39;24.50;46.30
7077;DHT22;3579;48.956;9.154;2023-05-19T16:16:05;24.50;46.30
7077;DHT22;3579;48.956;9.154;2023-05-19T16:18:31;24.50;46.80
7077;DHT22;3579;48.956;9.154;2023-05-19T16:20:57;24.50;46.20
7077;DHT22;3579;48.956;9.154;2023-05-19T16:23:23;24.50;46.20
7077;DHT22;3579;48.956;9.154;2023-05-19T16:25:50;24.50;46.30
7077;DHT22;3579;48.956;9.154;2023-05-19T16:28:16;24.50;46.80
7077;DHT22;3579;48.956;9.154;2023-05-19T16:30:42;24.50;46.40
7077;DHT22;3579;48.956;9.154;2023-05-19T16:33:08;24.50;46.40
7077;DHT22;3579;48.956;9.154;2023-05-19T16:35:34;24.50;46.40
7077;DHT22;3579;48.956;9.154;2023-05-19T16:38:00;24.40;46.30
7077;DHT22;3579;48.956;9.154;2023-05-19T16:40:26;24.40;46.30
7077;DHT22;3579;48.956;9.154;2023-05-19T16:42:52;24.40;46.40
7077;DHT22;3579;48.956;9.154;2023-05-19T16:45:19;24.40;46.40
7077;DHT22;3579;48.956;9.154;2023-05-19T16:47:45;24.40;46.50